Flight Track Log - Related Links

Times and Time Zones

All times are in EDT time to prevent confusion due to time zone crossing. See the UAL5887 flight status page for this flight to view local times or setup timezone preferences in your user account.

Time Position Orientation Groundspeed Altitude Reporting Facility
EDT Latitude Longitude Course Direction KTS MPH feet Rate Location/Type
Wed 10:11:00 AM 42.0000 -87.8833 62° Northeast 156 180 2,400  Level Chicago TRACON
Wed 10:12:00 AM 42.0333 -87.8000 62° Northeast 231 266 4,500 1,350 Climbing Chicago TRACON
Wed 10:13:00 AM 42.0500 -87.7167 75° East 257 296 5,100 1,500 Climbing Chicago TRACON
Wed 10:14:00 AM 42.0500 -87.6167 90° East 277 319 7,500 2,250 Climbing Chicago TRACON
Wed 10:16:04 AM 42.1256 -87.4078 64° Northeast 315 362 12,000 1,978 Climbing Chicago Center
Wed 10:17:05 AM 42.1736 -87.3003 59° Northeast 334 384 13,600 1,220 Climbing Chicago Center
Wed 10:18:07 AM 42.2275 -87.1764 60° Northeast 379 436 14,500 1,161 Climbing Chicago Center
Wed 10:19:09 AM 42.2769 -87.0425 63° Northeast 403 464 16,000 1,463 Climbing Chicago Center
Wed 10:20:10 AM 42.2847 -86.8914 86° East 404 465 17,500 1,317 Climbing Chicago Center
Wed 10:21:12 AM 42.2903 -86.7361 87° East 414 476 18,700 1,403 Climbing Chicago Center
Wed 10:22:14 AM 42.2972 -86.5664 87° East 421 484 20,400 1,548 Climbing Chicago Center
Wed 10:23:16 AM 42.3031 -86.4047 87° East 429 494 21,900 1,452 Climbing Chicago Center
Wed 10:24:18 AM 42.3086 -86.2392 87° East 438 504 23,400 1,463 Climbing Chicago Center
Wed 10:25:19 AM 42.3131 -86.0706 88° East 446 513 24,900 1,610 Climbing Chicago Center
Wed 10:26:21 AM 42.3122 -85.8689 90° East 447 514 26,700 1,597 Climbing Chicago Center
Wed 10:27:23 AM 42.3108 -85.7014 91° East 445 512 28,200 1,452 Climbing Chicago Center
Wed 10:28:25 AM 42.3078 -85.5358 91° East 442 509 29,700 1,452 Climbing Chicago Center
Wed 10:29:27 AM 42.3083 -85.3711 90° East 447 514 31,200 1,475 Climbing Cleveland Center
Wed 10:30:27 AM 42.3053 -85.1883 91° East 441 507 32,700 900 Climbing Cleveland Center
Wed 10:31:27 AM 42.3019 -85.0139 91° East 451 519 33,000 400 Climbing Cleveland Center
Wed 10:32:27 AM 42.2983 -84.8283 91° East 474 545 33,500 850 Climbing Cleveland Center
Wed 10:33:27 AM 42.2933 -84.6819 93° East 486 559 34,700 750 Climbing Cleveland Center
Wed 10:34:27 AM 42.3147 -84.4839 82° East 476 548 35,000 150 Climbing Cleveland Center
Wed 10:35:27 AM 42.3539 -84.3092 73° East 476 548 35,000  Level Cleveland Center
Wed 10:36:27 AM 42.3950 -84.1344 72° East 482 555 35,000  Level Cleveland Center
Wed 10:37:27 AM 42.4378 -83.9539 72° East 498 573 35,000  Level Cleveland Center
Wed 10:38:27 AM 42.4786 -83.7731 73° East 498 573 35,000  Level Cleveland Center
Wed 10:39:27 AM 42.5186 -83.5947 73° East 492 566 35,000  Level Cleveland Center
Wed 10:40:27 AM 42.5633 -83.3967 73° East 492 566 35,000  Level Cleveland Center
Wed 10:41:27 AM 42.6031 -83.2150 73° East 492 566 35,000  Level Cleveland Center
Wed 10:42:27 AM 42.6425 -83.0361 73° East 487 560 35,000  Level Cleveland Center
Wed 10:43:27 AM 42.6817 -82.8569 73° East 487 560 35,000  Level Cleveland Center
Wed 10:44:27 AM 42.7206 -82.6744 74° East 487 560 35,000  Level Cleveland Center
Wed 10:45:27 AM 42.7592 -82.4947 74° East 487 560 35,000  Level Cleveland Center
Wed 10:46:27 AM 42.7972 -82.3150 74° East 487 560 35,000  Level Cleveland Center
Wed 10:47:27 AM 42.8353 -82.1319 74° East 487 560 35,000  Level Cleveland Center
Wed 10:48:27 AM 42.8731 -81.9514 74° East 487 560 35,000  Level Cleveland Center
Wed 10:49:24 AM 42.9000 -81.7667 79° East 500 575 35,000  Level Toronto Center
Wed 10:50:24 AM 42.9333 -81.5833 76° East 500 575 35,000  Level Toronto Center
Wed 10:51:24 AM 42.9667 -81.4167 75° East 500 575 35,000  Level Toronto Center
Wed 10:52:24 AM 43.0000 -81.2000 78° East 500 575 35,000  Level Toronto Center
Wed 10:53:24 AM 43.0500 -81.0500 65° Northeast 490 564 35,000  Level Toronto Center
Wed 10:54:24 AM 43.1167 -80.8833 61° Northeast 480 552 35,000  Level Toronto Center
Wed 10:55:24 AM 43.2000 -80.7333 53° Northeast 480 552 35,000  Level Toronto Center
Wed 10:56:24 AM 43.2667 -80.5667 61° Northeast 480 552 35,000  Level Toronto Center
Wed 10:57:24 AM 43.3333 -80.4167 59° Northeast 490 564 35,000  Level Toronto Center
Wed 10:58:24 AM 43.4000 -80.2500 61° Northeast 490 564 35,000  Level Toronto Center
Wed 10:59:24 AM 43.4500 -80.1000 65° Northeast 490 564 35,000  Level Toronto Center
Wed 11:00:24 AM 43.5333 -79.9167 58° Northeast 490 564 35,000  Level Toronto Center
Wed 11:01:24 AM 43.5833 -79.7500 67° East 490 564 35,000 50 Level Toronto Center
Wed 11:02:24 AM 43.6500 -79.5833 61° Northeast 500 575 35,100  Climbing Toronto Center
Wed 11:03:24 AM 43.7000 -79.4000 69° East 510 587 35,000 -50 Descending Toronto Center
Wed 11:04:24 AM 43.7667 -79.2333 61° Northeast 500 575 35,000  Level Toronto Center
Wed 11:05:24 AM 43.8333 -79.0833 58° Northeast 500 575 35,000  Level Toronto Center
Wed 11:06:24 AM 43.9167 -78.9000 58° Northeast 500 575 35,000  Level Toronto Center
Wed 11:07:24 AM 43.9833 -78.7333 61° Northeast 500 575 35,000  Level Toronto Center
Wed 11:08:24 AM 44.0500 -78.5500 63° Northeast 500 575 35,000  Level Toronto Center
Wed 11:09:24 AM 44.1000 -78.3833 67° East 510 587 35,000  Level Toronto Center
Wed 11:10:24 AM 44.1667 -78.1833 65° Northeast 510 587 35,000  Level Toronto Center
Wed 11:11:24 AM 44.2333 -78.0333 58° Northeast 510 587 35,000  Level Toronto Center
Wed 11:12:24 AM 44.3000 -77.8333 65° Northeast 510 587 35,000  Level Toronto Center
Wed 11:13:24 AM 44.3667 -77.6667 61° Northeast 500 575 35,000 -950 Level Toronto Center
Wed 11:14:24 AM 44.4333 -77.5000 61° Northeast 500 575 33,100 -2,400 Descending Toronto Center
Wed 11:15:24 AM 44.4833 -77.3500 65° Northeast 490 564 30,200 -3,000 Descending Toronto Center
Wed 11:16:24 AM 44.5500 -77.1500 65° Northeast 500 575 27,100 -2,950 Descending Toronto Center
Wed 11:17:24 AM 44.6167 -76.9833 61° Northeast 500 575 24,300 -2,954 Descending Toronto Center
Wed 11:18:34 AM 44.7000 -76.8333 52° Northeast 470 541 20,700 -2,862 Descending Montreal Center
Wed 11:19:34 AM 44.7667 -76.7000 55° Northeast 440 506 18,100 -2,073 Descending Montreal Center
Wed 11:20:24 AM 44.8167 -76.5500 65° Northeast 430 495 16,900 -1,800 Descending Toronto Center
Wed 11:21:24 AM 44.9000 -76.4333 45° Northeast 410 472 14,800 -2,057 Descending Toronto Center
Wed 11:21:34 AM 44.9000 -76.4333 45° Northeast 400 460 14,500 -1,800 Descending Montreal Center
Wed 11:22:24 AM 44.9667 -76.3167 51° Northeast 390 449 13,000 -1,418 Descending Toronto Center
Wed 11:23:24 AM 45.0333 -76.1833 55° Northeast 380 437 11,900 -1,000 Descending Toronto Center
Wed 11:24:24 AM 45.0833 -76.0667 59° Northeast 380 437 11,000 -1,000 Descending Toronto Center
Wed 11:25:24 AM 45.0833 -75.9500 90° East 330 380 9,900 -1,500 Descending Toronto Center
Wed 11:26:24 AM 45.1000 -75.8333 79° East 290 334 8,000 -1,800 Descending Toronto Center
Wed 11:27:24 AM 45.1000 -75.7333 90° East 270 311 6,300 -1,700 Descending Toronto Center
Wed 11:28:24 AM 45.1167 -75.6167 79° East 250 288 4,600 -1,350 Descending Toronto Center
Wed 11:29:24 AM 45.1333 -75.5500 70° East 230 265 3,600 -1,000 Descending Toronto Center
Wed 11:30:24 AM 45.1667 -75.4667 60° Northeast 230 265 2,600 -750 Descending Toronto Center
Wed 11:31:24 AM 45.2167 -75.4333 25° Northeast 210 242 2,100 -250 Descending Toronto Center
Wed 11:32:24 AM 45.2333 -75.5333 283° West 190 219 2,100 -400 Level Toronto Center
Wed 11:33:24 AM 45.2833 -75.5833 325° Northwest 150 173 1,300 -700 Descending Toronto Center
Wed 11:34:24 AM 45.3000 -75.6000 325° Northwest 120 138 700 -600 Descending Toronto Center

Login

Don't have an account? Register now (free) for customized features, flight alerts, and more!